메인 페이지
METAR-TAF:

METAR-TAF

공항 :

Tapachula, 멕시코

위도: 14-47N, 경도: 092-23W, 고도: 29m

현재 날씨관측

예보는 3 시간 9분 전, 04:40시(UTC)에 발표되었습니다.
4kt
온도 23°C
습도 100%
기압 1009 hPa
시정: 12.9km
고도 1500ft 상공 구름 조금
고도 8000ft 상공 구름 보통
고도 20000ft 상공 구름 보통

METAR: MMTP 210440Z 09004KT 8SM FEW015 SCT080 SCT200 23/23 A2981 RMK 60035 8/463 RAE10

시각: 02:49 (07:49 UTC)

예보

예보는 2 시간 11분 전, 05:38시(UTC)에 발표되었습니다.
예보 대상 시간: 21일 06시부터 22일 06시까지 (UTC)
5kt
시정: 10km
고도 1500ft 상공 구름 보통
고도 8000ft 상공 구름 많음
일시적
21일 08시부터 21일 12시까지 (UTC)
시정: 3.2km
고도 1000ft 상공 구름 많음, 적란운.
21일 1200시부터 (UTC)
10kt
시정: 8.0km
고도 2000ft 상공 구름 많음
고도 8000ft 상공 구름 많음
고도 24000ft 상공 구름 많음
연무, 시계 내, 비
일시적
21일 18시부터 21일 22시까지 (UTC)
시정: 6.4km
고도 1500ft 상공 구름 많음, 적란운.
비,

TAF: MMTP 210538Z 2106/2206 09005KT P6SM SCT015 BKN080 TEMPO 2108/2112 2SM RA BKN010CB FM211200 10010KT 5SM HZ VC RA BKN020 BKN080 BKN240 TEMPO 2118/2122 4SM RA BKN015CB

4,000개 이상의 공항 관측 자료 및 예보 (METAR 및 TAF 보고).

지도상에서 검색 가능한 기상관측소가 노란 점과 빨간 점으로 표시되어 있습니다.

기상관측소 명을 보려면 표시 위로 마우스를 이동하세요.

날씨 관측과 예보를 보려면 클릭하세요.

지도 변경 : 확대하려면 엑스 표시가 있는 녹색 버튼, 축소하려면 빼기 표시가 있는 녹색 버튼, 다음 페이지의 지도를 보려면 녹색 화살표를 클릭하세요.


METAR-TAF: